Time;durP1;ratioP1;P1;durP2;ratioP2;P2;SDS_P1;SDS_P2;PMS_P1;PMS_P2;Temp;Humidity;BMP_temperature;BMP_pressure;BME280_temperature;BME280_humidity;BME280_pressure;Samples;Min_cycle;Max_cycle;Signal;HPM_P1;HPM_P2
2024/01/23 00:00:09;;;;;;;;;;;;;;;17.09;37.30;102339.28;5057960;28;1146;-60
2024/01/23 00:02:34;;;;;;;;;;;;;;;16.19;39.04;102340.28;5057571;28;1060;-60
2024/01/23 00:05:00;;;;;;;;;;;;;;;15.76;39.76;102331.09;5057395;28;1096;-60
2024/01/23 00:07:25;;;;;;;;;;;;;;;15.59;40.20;102336.34;5057866;28;1897;-61
2024/01/23 00:09:51;;;;;;;;;;;;;;;17.13;37.16;102333.31;5058244;28;1207;-61
2024/01/23 00:12:16;;;;;;;;;;;;;;;17.56;36.17;102330.16;5057785;28;1840;-62
2024/01/23 00:14:42;;;;;;;;;;;;;;;16.45;38.54;102338.19;5057671;28;1059;-61
2024/01/23 00:17:08;;;;;;;;;;;;;;;15.90;39.74;102329.88;5057133;28;1015;-62
2024/01/23 00:19:33;;;;;;;;;;;;;;;15.62;40.18;102330.41;5057780;28;1099;-62
2024/01/23 00:21:59;;;;;;;;;;;;;;;16.60;38.27;102328.44;5057607;28;1094;-62
2024/01/23 00:24:24;;;;;;;;;;;;;;;17.65;36.30;102307.78;5057723;28;1096;-62
2024/01/23 00:26:50;;;;;;;;;;;;;;;16.95;37.52;102309.53;5057322;28;1902;-62
2024/01/23 00:29:15;;;;;;;;;;;;;;;16.21;38.81;102310.69;5057484;28;1031;-62
2024/01/23 00:31:41;;;;;;;;;;;;;;;15.80;39.70;102313.13;5057232;28;1040;-62
2024/01/23 00:34:06;;;;;;;;;;;;;;;15.48;40.26;102307.78;5056929;28;1075;-61
2024/01/23 00:36:32;;;;;;;;;;;;;;;16.92;37.57;102300.69;5057154;28;1114;-62
2024/01/23 00:38:57;;;;;;;;;;;;;;;17.81;35.82;102297.91;5056764;28;1195;-60
2024/01/23 00:41:23;;;;;;;;;;;;;;;16.75;37.63;102289.53;5056473;28;1043;-61
2024/01/23 00:43:48;;;;;;;;;;;;;;;16.08;39.21;102295.25;5068851;28;2326;-61
2024/01/23 00:46:14;;;;;;;;;;;;;;;15.69;40.06;102290.03;5057340;28;1028;-61
2024/01/23 00:48:40;;;;;;;;;;;;;;;15.64;40.07;102281.66;5057373;28;1992;-62
2024/01/23 00:51:05;;;;;;;;;;;;;;;17.16;36.93;102264.13;5057210;28;1043;-64
2024/01/23 00:53:31;;;;;;;;;;;;;;;17.49;36.40;102260.69;5056917;28;1083;-64
2024/01/23 00:55:58;;;;;;;;;;;;;;;16.36;38.47;102258.91;5056726;28;1020;-64
2024/01/23 00:58:24;;;;;;;;;;;;;;;15.89;39.34;102242.31;5056953;28;960;-63
2024/01/23 01:00:50;;;;;;;;;;;;;;;15.57;40.03;102243.38;5056529;28;1090;-63
2024/01/23 01:03:15;;;;;;;;;;;;;;;16.85;37.56;102249.66;5056483;28;1116;-64
2024/01/23 01:05:41;;;;;;;;;;;;;;;17.81;35.95;102242.88;5056352;28;1053;-64
2024/01/23 01:08:07;;;;;;;;;;;;;;;16.71;37.84;102249.06;5056676;28;1918;-64
2024/01/23 01:10:32;;;;;;;;;;;;;;;16.05;39.09;102236.19;5056837;28;1083;-62
2024/01/23 01:12:58;;;;;;;;;;;;;;;15.68;40.14;102228.03;5056531;28;1925;-63
2024/01/23 01:15:23;;;;;;;;;;;;;;;15.76;39.75;102234.28;5057127;28;1115;-62
2024/01/23 01:17:49;;;;;;;;;;;;;;;17.24;36.67;102217.84;5056199;28;1159;-64
2024/01/23 01:20:15;;;;;;;;;;;;;;;17.46;36.35;102219.94;5056929;28;1569;-65
2024/01/23 01:22:41;;;;;;;;;;;;;;;16.38;38.66;102221.09;5056131;28;1067;-64
2024/01/23 01:25:08;;;;;;;;;;;;;;;15.85;39.50;102219.16;5056314;28;1108;-62
2024/01/23 01:27:34;;;;;;;;;;;;;;;15.51;40.12;102213.28;5056317;28;1909;-63
2024/01/23 01:29:59;;;;;;;;;;;;;;;16.79;37.92;102212.13;5055890;28;1120;-61
2024/01/23 01:32:25;;;;;;;;;;;;;;;17.74;35.88;102208.09;5056512;28;1047;-61
2024/01/23 01:34:50;;;;;;;;;;;;;;;16.66;37.66;102208.59;5056503;28;1016;-61
2024/01/23 01:37:16;;;;;;;;;;;;;;;15.99;39.26;102204.22;5055843;28;1089;-60
2024/01/23 01:39:41;;;;;;;;;;;;;;;15.63;39.82;102203.22;5056385;28;1011;-60
2024/01/23 01:42:07;;;;;;;;;;;;;;;16.73;37.65;102203.81;5055500;28;1807;-62
2024/01/23 01:44:33;;;;;;;;;;;;;;;17.75;35.93;102187.78;5056179;28;1140;-61
2024/01/23 01:46:59;;;;;;;;;;;;;;;16.94;37.06;102187.78;5056684;28;1910;-61
2024/01/23 01:49:24;;;;;;;;;;;;;;;16.19;38.75;102186.59;5056095;28;1132;-62
2024/01/23 01:51:50;;;;;;;;;;;;;;;15.81;39.66;102188.66;5056196;28;1132;-61
2024/01/23 01:54:16;;;;;;;;;;;;;;;15.53;40.13;102184.56;5055858;28;1009;-61
2024/01/23 01:56:41;;;;;;;;;;;;;;;16.87;37.46;102181.56;5038276;28;1262;-61
2024/01/23 01:59:09;;;;;;;;;;;;;;;17.75;35.84;102182.28;5056102;28;1051;-61
2024/01/23 02:01:34;;;;;;;;;;;;;;;16.63;37.63;102173.34;5056250;28;1079;-61
2024/01/23 02:04:00;;;;;;;;;;;;;;;16.01;38.87;102168.31;5038431;28;1260;-61
2024/01/23 02:06:26;;;;;;;;;;;;;;;15.64;39.72;102169.25;5055787;28;1084;-63
2024/01/23 02:08:51;;;;;;;;;;;;;;;16.31;38.63;102165.44;5055591;28;1989;-60
2024/01/23 02:11:17;;;;;;;;;;;;;;;17.53;36.28;102162.03;5055477;28;1107;-61
2024/01/23 02:13:43;;;;;;;;;;;;;;;17.18;36.47;102154.75;5056040;28;2572;-61
2024/01/23 02:16:08;;;;;;;;;;;;;;;16.24;38.50;102159.25;5037957;28;1172;-61
2024/01/23 02:18:34;;;;;;;;;;;;;;;15.82;39.24;102173.00;5055450;28;1012;-62
2024/01/23 02:20:59;;;;;;;;;;;;;;;15.71;39.50;102159.00;5056079;28;1087;-61
2024/01/23 02:23:28;;;;;;;;;;;;;;;17.24;36.69;102156.53;5055837;28;1114;-61
2024/01/23 02:25:54;;;;;;;;;;;;;;;17.28;36.42;102146.72;5055591;28;1132;-62
2024/01/23 02:28:19;;;;;;;;;;;;;;;16.28;38.29;102146.72;5055663;28;1910;-62
2024/01/23 02:30:45;;;;;;;;;;;;;;;15.82;39.51;102143.69;5055508;28;1055;-61
2024/01/23 02:33:10;;;;;;;;;;;;;;;15.50;39.88;102151.28;5055937;28;1016;-62
2024/01/23 02:35:37;;;;;;;;;;;;;;;16.66;38.09;102147.31;5055503;28;1159;-62
2024/01/23 02:38:03;;;;;;;;;;;;;;;17.68;35.90;102139.47;5055381;28;1108;-63
2024/01/23 02:40:28;;;;;;;;;;;;;;;16.73;37.32;102132.38;5055184;28;1099;-63
2024/01/23 02:42:54;;;;;;;;;;;;;;;16.05;38.94;102145.63;5054718;28;1841;-63
2024/01/23 02:45:20;;;;;;;;;;;;;;;15.68;39.47;102140.28;5055611;28;1114;-61
2024/01/23 02:47:45;;;;;;;;;;;;;;;15.49;40.17;102144.97;5054994;28;1934;-64
2024/01/23 02:50:11;;;;;;;;;;;;;;;17.01;37.01;102138.19;5055912;28;1043;-62
2024/01/23 02:52:36;;;;;;;;;;;;;;;17.82;35.43;102142.75;5055170;28;1059;-61
2024/01/23 02:55:03;;;;;;;;;;;;;;;16.95;36.90;102128.19;5054974;28;1099;-61
2024/01/23 02:57:29;;;;;;;;;;;;;;;16.17;38.46;102122.84;5055592;28;1103;-61
2024/01/23 02:59:54;;;;;;;;;;;;;;;15.76;39.41;102113.59;5055381;28;1226;-61
2024/01/23 03:02:20;;;;;;;;;;;;;;;15.89;39.36;102116.13;5058618;28;1113;-60
2024/01/23 03:04:46;;;;;;;;;;;;;;;17.36;36.32;102113.34;5060213;28;1123;-61
2024/01/23 03:07:11;;;;;;;;;;;;;;;17.17;36.61;102109.13;5058516;28;1906;-60
2024/01/23 03:09:37;;;;;;;;;;;;;;;16.23;38.48;102095.28;5058779;28;1047;-61
2024/01/23 03:12:03;;;;;;;;;;;;;;;15.79;39.40;102104.88;5058784;28;2297;-60
2024/01/23 03:14:29;;;;;;;;;;;;;;;15.77;39.35;102109.75;5058893;28;1148;-61
2024/01/23 03:16:54;;;;;;;;;;;;;;;17.30;36.30;102097.00;5058741;28;937;-60
2024/01/23 03:19:20;;;;;;;;;;;;;;;17.36;36.04;102099.59;5058519;28;1048;-61
2024/01/23 03:21:45;;;;;;;;;;;;;;;16.36;38.00;102094.22;5059022;28;1190;-60
2024/01/23 03:24:12;;;;;;;;;;;;;;;15.87;38.98;102091.69;5058011;28;1142;-61
2024/01/23 03:26:38;;;;;;;;;;;;;;;15.56;39.93;102090.88;5059252;28;1107;-61
2024/01/23 03:29:03;;;;;;;;;;;;;;;17.05;37.06;102085.25;5058570;28;1906;-60
2024/01/23 03:31:28;;;;;;;;;;;;;;;17.79;35.55;102072.53;5058214;28;885;-60
2024/01/23 03:33:54;;;;;;;;;;;;;;;16.58;37.84;102074.38;5058907;28;1047;-60
2024/01/23 03:36:20;;;;;;;;;;;;;;;15.91;38.81;102081.09;5058727;28;1111;-60
2024/01/23 03:38:46;;;;;;;;;;;;;;;15.62;39.69;102083.63;5058052;28;1119;-60
2024/01/23 03:41:11;;;;;;;;;;;;;;;15.67;39.47;102086.50;5058476;28;1004;-60
2024/01/23 03:43:36;;;;;;;;;;;;;;;17.20;36.58;102073.72;5058375;28;2235;-61
2024/01/23 03:46:02;;;;;;;;;;;;;;;17.34;35.93;102076.16;5058283;28;1226;-60
2024/01/23 03:48:28;;;;;;;;;;;;;;;16.31;38.16;102087.78;5058298;28;1968;-61
2024/01/23 03:50:53;;;;;;;;;;;;;;;15.76;39.28;102083.44;5058167;28;1149;-60
2024/01/23 03:53:18;;;;;;;;;;;;;;;15.73;39.50;102088.28;5057727;28;1028;-61
2024/01/23 03:55:45;;;;;;;;;;;;;;;17.25;36.44;102083.97;5057809;28;861;-61
2024/01/23 03:58:10;;;;;;;;;;;;;;;17.35;35.97;102077.81;5058118;28;1072;-61
2024/01/23 04:00:36;;;;;;;;;;;;;;;16.25;38.15;102075.84;5058368;28;1044;-61
2024/01/23 04:03:03;;;;;;;;;;;;;;;15.82;39.08;102082.50;5057792;28;1152;-61
2024/01/23 04:05:28;;;;;;;;;;;;;;;15.52;39.67;102078.72;5058173;28;1221;-61
2024/01/23 04:07:54;;;;;;;;;;;;;;;16.98;37.04;102075.50;5057528;28;1902;-60
2024/01/23 04:10:19;;;;;;;;;;;;;;;17.81;35.37;102081.38;5039334;28;1269;-60
2024/01/23 04:12:45;;;;;;;;;;;;;;;16.74;37.30;102081.03;5057724;28;2253;-60
2024/01/23 04:15:10;;;;;;;;;;;;;;;16.10;38.46;102078.22;5057601;28;1136;-60
2024/01/23 04:17:38;;;;;;;;;;;;;;;15.74;39.18;102069.97;5057572;28;1079;-63
2024/01/23 04:20:04;;;;;;;;;;;;;;;15.44;40.15;102068.09;5039394;28;1291;-61
2024/01/23 04:22:29;;;;;;;;;;;;;;;17.01;36.69;102069.50;5057391;28;1441;-61
2024/01/23 04:24:55;;;;;;;;;;;;;;;17.62;35.60;102067.03;5057078;28;1011;-61
2024/01/23 04:27:20;;;;;;;;;;;;;;;16.36;37.96;102066.75;5057707;28;1906;-61
2024/01/23 04:29:46;;;;;;;;;;;;;;;15.84;38.91;102062.00;5057621;28;1098;-62
2024/01/23 04:32:11;;;;;;;;;;;;;;;15.47;39.86;102061.31;5057259;28;1035;-62
2024/01/23 04:34:37;;;;;;;;;;;;;;;16.89;36.93;102062.13;5057657;28;1163;-62
2024/01/23 04:37:02;;;;;;;;;;;;;;;17.71;35.29;102053.69;5057393;28;1072;-62
2024/01/23 04:39:28;;;;;;;;;;;;;;;16.53;37.70;102052.28;5057075;28;1060;-60
2024/01/23 04:41:53;;;;;;;;;;;;;;;15.90;38.92;102046.50;5056884;28;1770;-59
2024/01/23 04:44:19;;;;;;;;;;;;;;;15.60;39.67;102047.41;5057153;28;941;-62
2024/01/23 04:46:45;;;;;;;;;;;;;;;16.75;37.43;102047.81;5057137;28;1909;-60
2024/01/23 04:49:10;;;;;;;;;;;;;;;17.71;35.47;102048.19;5057138;28;1035;-61
2024/01/23 04:51:36;;;;;;;;;;;;;;;16.57;37.63;102042.50;5056936;28;1067;-60
2024/01/23 04:54:01;;;;;;;;;;;;;;;15.89;39.05;102039.34;5056827;28;1004;-64
2024/01/23 04:56:27;;;;;;;;;;;;;;;15.62;39.59;102050.72;5056917;28;1132;-65
2024/01/23 04:58:52;;;;;;;;;;;;;;;16.97;36.89;102043.59;5057126;28;1099;-65
2024/01/23 05:01:18;;;;;;;;;;;;;;;17.65;35.65;102033.53;5056497;28;1150;-65
2024/01/23 05:03:43;;;;;;;;;;;;;;;16.40;37.87;102026.78;5056628;28;1137;-66
2024/01/23 05:06:09;;;;;;;;;;;;;;;15.85;39.05;102029.91;5056822;28;1104;-64
2024/01/23 05:08:34;;;;;;;;;;;;;;;15.50;39.73;102038.91;5056792;28;1969;-65
2024/01/23 05:11:01;;;;;;;;;;;;;;;16.92;36.89;102022.34;5056586;28;1044;-65
2024/01/23 05:13:27;;;;;;;;;;;;;;;17.61;35.57;102011.19;5057038;28;2197;-65
2024/01/23 05:15:53;;;;;;;;;;;;;;;16.54;37.60;102010.03;5056822;28;1072;-65
2024/01/23 05:18:18;;;;;;;;;;;;;;;15.90;38.97;102013.59;5056886;28;1044;-65
2024/01/23 05:20:44;;;;;;;;;;;;;;;17.28;36.27;102012.03;5056377;28;1012;-62
2024/01/23 05:23:10;;;;;;;;;;;;;;;16.35;38.04;102026.66;5061114;28;1063;-63
2024/01/23 05:25:38;;;;;;;;;;;;;;;15.79;39.27;102028.09;5061193;28;1031;-64
2024/01/23 05:28:03;;;;;;;;;;;;;;;15.33;40.12;102020.41;5056407;28;1974;-63
2024/01/23 05:30:29;;;;;;;;;;;;;;;17.04;36.79;102014.03;5056356;28;1104;-61
2024/01/23 05:32:54;;;;;;;;;;;;;;;16.10;38.30;102023.34;5056292;28;1184;-61
2024/01/23 05:35:20;;;;;;;;;;;;;;;15.48;39.72;102021.88;5056171;28;988;-59
2024/01/23 05:37:46;;;;;;;;;;;;;;;17.12;36.51;102013.63;5056110;28;1031;-62
2024/01/23 05:40:11;;;;;;;;;;;;;;;16.54;37.39;102007.28;5055613;28;1083;-62
2024/01/23 05:42:37;;;;;;;;;;;;;;;15.78;38.97;102009.97;5055905;28;1805;-59
2024/01/23 05:45:03;;;;;;;;;;;;;;;16.83;37.16;102004.53;5055280;28;1064;-60
2024/01/23 05:47:29;;;;;;;;;;;;;;;16.37;37.78;101997.06;5056126;28;1902;-61
2024/01/23 05:49:54;;;;;;;;;;;;;;;15.70;39.10;101997.47;5056219;28;1144;-61
2024/01/23 05:52:20;;;;;;;;;;;;;;;16.84;36.97;101993.31;5055872;28;1071;-63
2024/01/23 05:54:45;;;;;;;;;;;;;;;17.25;36.29;102004.25;5055011;28;1100;-63
2024/01/23 05:57:11;;;;;;;;;;;;;;;15.96;38.89;101996.16;5055207;28;1132;-63
2024/01/23 05:59:36;;;;;;;;;;;;;;;15.71;39.49;101993.63;5055480;28;1116;-62
2024/01/23 06:02:04;;;;;;;;;;;;;;;16.98;36.98;101985.63;5055449;28;1338;-62
2024/01/23 06:04:29;;;;;;;;;;;;;;;17.18;36.50;101982.44;5055619;28;1100;-61
2024/01/23 06:06:55;;;;;;;;;;;;;;;16.13;38.26;101987.19;5056091;28;1976;-60
2024/01/23 06:09:21;;;;;;;;;;;;;;;16.91;37.23;101984.97;5055320;28;888;-60
2024/01/23 06:11:47;;;;;;;;;;;;;;;16.53;37.68;101978.16;5055574;28;1984;-60
2024/01/23 06:14:12;;;;;;;;;;;;;;;16.09;38.95;101984.13;5055007;28;1059;-61
2024/01/23 06:16:38;;;;;;;;;;;;;;;17.53;35.81;101975.88;5055486;28;992;-62
2024/01/23 06:19:06;;;;;;;;;;;;;;;16.22;38.40;101983.00;5055541;28;1012;-59
2024/01/23 06:21:31;;;;;;;;;;;;;;;15.85;39.06;101973.16;5055075;28;919;-60
2024/01/23 06:23:57;;;;;;;;;;;;;;;17.69;35.47;101981.59;5055103;28;1108;-64
2024/01/23 06:26:23;;;;;;;;;;;;;;;16.39;38.03;101981.16;5055478;28;1112;-62
2024/01/23 06:28:48;;;;;;;;;;;;;;;16.43;38.33;101990.59;5055112;28;1906;-61
2024/01/23 06:31:14;;;;;;;;;;;;;;;17.02;36.68;101989.56;5055617;28;1475;-59
2024/01/23 06:33:40;;;;;;;;;;;;;;;16.11;38.79;101986.63;5054729;28;937;-59
2024/01/23 06:36:05;;;;;;;;;;;;;;;16.50;37.99;101992.38;5056814;28;1080;-56
2024/01/23 06:38:31;;;;;;;;;;;;;;;16.15;38.66;101993.28;5058892;28;1015;-60
2024/01/23 06:40:56;;;;;;;;;;;;;;;15.71;39.33;101980.75;5056282;28;2131;-61
2024/01/23 06:43:22;;;;;;;;;;;;;;;17.23;36.55;101985.25;5059821;28;1052;-61
2024/01/23 06:45:48;;;;;;;;;;;;;;;17.04;36.71;101967.31;5059064;28;1321;-60
2024/01/23 06:48:13;;;;;;;;;;;;;;;16.12;38.52;101978.13;5059297;28;1906;-60
2024/01/23 06:50:39;;;;;;;;;;;;;;;17.15;37.00;101971.09;5059471;28;1043;-60
2024/01/23 06:53:04;;;;;;;;;;;;;;;16.56;37.86;101970.28;5059087;28;1128;-61
2024/01/23 06:55:30;;;;;;;;;;;;;;;15.88;38.97;101969.13;5059289;28;1033;-63
2024/01/23 06:57:55;;;;;;;;;;;;;;;17.01;37.09;101968.69;5059076;28;989;-58
2024/01/23 07:00:21;;;;;;;;;;;;;;;17.02;36.98;101964.81;5059376;28;1001;-58
2024/01/23 07:02:46;;;;;;;;;;;;;;;16.10;38.73;101963.00;5059280;28;1239;-54
2024/01/23 07:05:12;;;;;;;;;;;;;;;15.76;39.61;101966.31;5059363;28;1028;-58
2024/01/23 07:07:37;;;;;;;;;;;;;;;17.41;36.38;101970.44;5058700;28;1910;-56
2024/01/23 07:10:04;;;;;;;;;;;;;;;16.21;38.33;101953.91;5050149;28;1148;-56
2024/01/23 07:12:30;;;;;;;;;;;;;;;15.83;39.45;101958.84;5041477;28;1995;-58
2024/01/23 07:14:55;;;;;;;;;;;;;;;16.80;37.28;101950.09;5058870;28;1108;-58
2024/01/23 07:17:21;;;;;;;;;;;;;;;16.02;39.12;101944.97;5058845;28;1091;-58
2024/01/23 07:19:46;;;;;;;;;;;;;;;16.82;37.34;101957.03;5058890;28;1175;-59
2024/01/23 07:22:12;;;;;;;;;;;;;;;17.25;36.24;101958.38;5058684;28;880;-59
2024/01/23 07:24:37;;;;;;;;;;;;;;;16.23;38.45;101947.09;5059037;28;1148;-60
2024/01/23 07:27:03;;;;;;;;;;;;;;;17.36;36.51;101953.88;5057740;28;1898;-59
2024/01/23 07:29:28;;;;;;;;;;;;;;;16.66;37.73;101944.06;5058225;28;1039;-58
2024/01/23 07:31:54;;;;;;;;;;;;;;;15.99;39.04;101954.53;5051949;28;1068;-57
2024/01/23 07:34:19;;;;;;;;;;;;;;;17.45;36.13;101952.34;5056752;28;862;-55
2024/01/23 07:36:45;;;;;;;;;;;;;;;16.55;37.94;101943.03;5058288;28;1051;-59
2024/01/23 07:39:12;;;;;;;;;;;;;;;15.99;39.11;101934.50;5058342;28;1063;-60
2024/01/23 07:41:38;;;;;;;;;;;;;;;16.23;38.71;101938.03;5057727;28;1092;-58
2024/01/23 07:44:03;;;;;;;;;;;;;;;17.17;36.67;101938.72;5058167;28;1108;-57
2024/01/23 07:46:29;;;;;;;;;;;;;;;16.04;38.87;101935.44;5056995;28;1032;-57
2024/01/23 07:48:54;;;;;;;;;;;;;;;15.82;39.24;101937.13;5058083;28;1983;-56
2024/01/23 07:51:20;;;;;;;;;;;;;;;17.48;36.31;101940.03;5058057;28;1134;-62
2024/01/23 07:53:46;;;;;;;;;;;;;;;16.30;38.06;101930.50;5058285;28;1276;-56
2024/01/23 07:56:12;;;;;;;;;;;;;;;15.79;39.39;101932.09;5058033;28;1403;-60
2024/01/23 07:58:38;;;;;;;;;;;;;;;17.20;36.71;101938.22;5057632;28;986;-61
2024/01/23 08:01:03;;;;;;;;;;;;;;;16.62;37.69;101931.91;5058025;28;1138;-58
2024/01/23 08:03:29;;;;;;;;;;;;;;;16.89;37.24;101940.44;5057283;28;1247;-59
2024/01/23 08:05:54;;;;;;;;;;;;;;;17.83;35.35;101941.63;5057540;28;1140;-58
2024/01/23 08:08:22;;;;;;;;;;;;;;;16.35;38.35;101936.06;5057688;28;1914;-58
2024/01/23 08:10:49;;;;;;;;;;;;;;;15.97;39.14;101934.72;5057753;28;957;-60
2024/01/23 08:13:15;;;;;;;;;;;;;;;17.28;36.63;101929.53;5057984;28;1128;-59
2024/01/23 08:15:41;;;;;;;;;;;;;;;16.38;38.30;101934.75;5058107;28;1068;-60
2024/01/23 08:18:07;;;;;;;;;;;;;;;17.03;37.07;101928.03;5057589;28;1104;-57
2024/01/23 08:20:33;;;;;;;;;;;;;;;17.24;36.62;101931.13;5056913;28;1083;-61
2024/01/23 08:22:58;;;;;;;;;;;;;;;16.27;38.46;101924.66;5057730;28;1094;-59
2024/01/23 08:25:24;;;;;;;;;;;;;;;15.90;39.28;101923.88;5057259;28;1023;-59
2024/01/23 08:27:49;;;;;;;;;;;;;;;15.89;39.38;101924.13;5057318;28;1910;-59
2024/01/23 08:30:15;;;;;;;;;;;;;;;17.34;36.45;101901.03;5057842;28;1144;-61
2024/01/23 08:32:41;;;;;;;;;;;;;;;16.11;38.64;101912.53;5057817;28;1036;-62
2024/01/23 08:35:06;;;;;;;;;;;;;;;15.80;39.66;101909.13;5057743;28;1127;-61
2024/01/23 08:37:32;;;;;;;;;;;;;;;17.58;36.21;101912.66;5057632;28;1043;-59
2024/01/23 08:39:57;;;;;;;;;;;;;;;16.24;38.53;101906.75;5057027;28;1595;-61
2024/01/23 08:42:23;;;;;;;;;;;;;;;15.78;39.49;101905.75;5057215;28;1231;-59
2024/01/23 08:44:50;;;;;;;;;;;;;;;17.45;36.39;101910.28;5057287;28;1068;-60
2024/01/23 08:47:16;;;;;;;;;;;;;;;16.82;37.29;101904.00;5057472;28;1913;-61
2024/01/23 08:49:41;;;;;;;;;;;;;;;16.03;39.17;101894.53;5056550;28;1112;-63
2024/01/23 08:52:07;;;;;;;;;;;;;;;15.79;39.47;101901.94;5057314;28;1344;-62
2024/01/23 08:54:34;;;;;;;;;;;;;;;17.51;36.35;101894.69;5057394;28;1072;-63
2024/01/23 08:57:00;;;;;;;;;;;;;;;16.72;37.69;101894.50;5056694;28;1012;-59
2024/01/23 08:59:27;;;;;;;;;;;;;;;16.05;38.80;101887.72;5056308;28;1095;-60
2024/01/23 09:01:53;;;;;;;;;;;;;;;16.42;38.26;101890.13;5056803;28;1156;-62
2024/01/23 09:04:18;;;;;;;;;;;;;;;16.88;37.45;101875.53;5056983;28;1044;-61
2024/01/23 09:06:44;;;;;;;;;;;;;;;16.03;38.93;101873.44;5056940;28;1104;-61
2024/01/23 09:09:10;;;;;;;;;;;;;;;15.74;39.42;101865.09;5056422;28;1910;-61
2024/01/23 09:11:36;;;;;;;;;;;;;;;17.06;37.20;101864.31;5057262;28;1143;-61
2024/01/23 09:14:01;;;;;;;;;;;;;;;16.40;38.18;101859.31;5056605;28;1333;-61
2024/01/23 09:16:27;;;;;;;;;;;;;;;15.77;39.59;101857.47;5056463;28;1060;-61
2024/01/23 09:18:52;;;;;;;;;;;;;;;15.60;39.82;101850.00;5056797;28;1077;-61
2024/01/23 09:21:18;;;;;;;;;;;;;;;17.34;36.45;101845.22;5056523;28;993;-60
2024/01/23 09:23:43;;;;;;;;;;;;;;;16.43;38.20;101845.09;5056748;28;1100;-60
2024/01/23 09:26:10;;;;;;;;;;;;;;;15.85;39.51;101835.16;5056561;28;1356;-61
2024/01/23 09:28:36;;;;;;;;;;;;;;;16.60;38.28;101836.88;5039172;28;1906;-62
2024/01/23 09:31:01;;;;;;;;;;;;;;;17.13;36.81;101833.09;5056114;28;1119;-61
2024/01/23 09:33:27;;;;;;;;;;;;;;;16.04;39.27;101822.13;5056867;28;1144;-62
2024/01/23 09:35:52;;;;;;;;;;;;;;;15.76;39.77;101829.22;5056166;28;1111;-62
2024/01/23 09:38:18;;;;;;;;;;;;;;;17.57;36.18;101820.25;5056764;28;1122;-61
2024/01/23 09:40:44;;;;;;;;;;;;;;;16.26;38.69;101827.75;5056382;28;1128;-61
2024/01/23 09:43:11;;;;;;;;;;;;;;;16.21;39.07;101811.19;5038481;28;1009;-62
2024/01/23 09:45:37;;;;;;;;;;;;;;;16.82;37.37;101811.44;5056412;28;866;-62
2024/01/23 09:48:02;;;;;;;;;;;;;;;16.06;39.18;101809.84;5039153;28;1910;-62
2024/01/23 09:50:28;;;;;;;;;;;;;;;15.76;39.77;101812.75;5056223;28;1132;-63
2024/01/23 09:52:55;;;;;;;;;;;;;;;17.06;37.21;101806.63;5056391;28;1024;-61
2024/01/23 09:55:21;;;;;;;;;;;;;;;16.93;37.33;101804.22;5038637;28;1056;-62
2024/01/23 09:57:47;;;;;;;;;;;;;;;16.05;39.32;101802.66;5038570;28;1115;-63
2024/01/23 10:00:13;;;;;;;;;;;;;;;15.77;39.86;101806.19;5038591;28;1177;-62
2024/01/23 10:02:42;;;;;;;;;;;;;;;17.17;36.95;101818.59;5056172;28;1028;-62
2024/01/23 10:05:08;;;;;;;;;;;;;;;16.03;39.34;101806.72;5055766;28;996;-60
2024/01/23 10:07:35;;;;;;;;;;;;;;;17.55;36.33;101796.84;5056381;28;1960;-61
2024/01/23 10:10:05;;;;;;;;;;;;;;;16.92;37.49;101808.88;5045776;28;1120;-60
2024/01/23 10:12:32;;;;;;;;;;;;;;;16.16;39.10;101808.34;5062730;28;1055;-62
2024/01/23 10:14:58;;;;;;;;;;;;;;;17.87;35.92;101804.41;5061829;28;1223;-62
2024/01/23 10:17:24;;;;;;;;;;;;;;;16.63;37.88;101808.09;5061910;28;980;-62
2024/01/23 10:19:49;;;;;;;;;;;;;;;16.03;39.34;101815.81;5062739;28;980;-61
2024/01/23 10:22:16;;;;;;;;;;;;;;;17.12;37.26;101812.19;5062256;28;1048;-62
2024/01/23 10:24:42;;;;;;;;;;;;;;;16.40;38.66;101807.16;5044812;28;1373;-61
2024/01/23 10:27:07;;;;;;;;;;;;;;;15.91;39.69;101793.91;5062513;28;1906;-62
2024/01/23 10:29:34;;;;;;;;;;;;;;;17.60;36.40;101799.69;5062231;28;1083;-61
2024/01/23 10:31:59;;;;;;;;;;;;;;;16.30;38.65;101806.97;5062262;28;1071;-64
2024/01/23 10:34:25;;;;;;;;;;;;;;;15.85;39.65;101802.25;5062011;28;1035;-61
2024/01/23 10:36:55;;;;;;;;;;;;;;;17.59;36.58;101803.50;5044748;28;1040;-61
2024/01/23 10:39:21;;;;;;;;;;;;;;;16.55;38.37;101800.25;5044920;28;1127;-61
2024/01/23 10:41:47;;;;;;;;;;;;;;;15.96;39.72;101792.34;5062136;28;1099;-59
2024/01/23 10:44:13;;;;;;;;;;;;;;;15.73;40.31;101788.56;5043926;28;1048;-60
2024/01/23 10:46:39;;;;;;;;;;;;;;;17.66;36.57;101787.63;5061382;28;1175;-59
2024/01/23 10:49:06;;;;;;;;;;;;;;;16.49;38.57;101777.38;5043809;28;1906;-60
2024/01/23 10:51:31;;;;;;;;;;;;;;;15.94;39.57;101772.56;5062084;28;1063;-61
2024/01/23 10:54:03;;;;;;;;;;;;;;;15.81;39.85;101779.13;5062239;28;1138;-59
2024/01/23 10:56:30;;;;;;;;;;;;;;;17.48;36.82;101783.28;5062304;28;1039;-60
2024/01/23 10:59:05;;;;;;;;;;;;;;;16.38;38.81;101779.13;5062074;28;1155;-60
2024/01/23 11:01:33;;;;;;;;;;;;;;;15.86;39.77;101771.03;5062308;28;1004;-58
2024/01/23 11:03:59;;;;;;;;;;;;;;;17.18;37.41;101770.78;5044167;28;1103;-57
2024/01/23 11:06:25;;;;;;;;;;;;;;;16.67;38.07;101762.56;5060326;28;1075;-60
2024/01/23 11:09:02;;;;;;;;;;;;;;;15.94;39.57;101762.41;5044475;28;1905;-60
2024/01/23 11:11:33;;;;;;;;;;;;;;;15.70;40.08;101753.41;5058919;28;1107;-60
2024/01/23 11:14:01;;;;;;;;;;;;;;;17.10;37.40;101755.56;5062008;28;1058;-60
2024/01/23 11:16:26;;;;;;;;;;;;;;;16.11;39.38;101750.66;5043288;28;1084;-60
2024/01/23 11:18:53;;;;;;;;;;;;;;;16.15;39.65;101740.84;5061446;28;1166;-60
2024/01/23 11:21:21;;;;;;;;;;;;;;;17.57;36.36;101742.41;5060376;28;1337;-60
2024/01/23 11:23:46;;;;;;;;;;;;;;;16.25;39.20;101736.34;5040783;28;1499;-60
2024/01/23 11:26:15;;;;;;;;;;;;;;;16.10;39.56;101738.00;5057792;28;1228;-60
2024/01/23 11:28:44;;;;;;;;;;;;;;;16.63;38.58;101735.88;5058839;28;1980;-60
2024/01/23 11:31:20;;;;;;;;;;;;;;;15.88;39.98;101734.03;5058243;28;1147;-60
2024/01/23 11:33:46;;;;;;;;;;;;;;;17.19;37.57;101731.22;5057949;28;992;-60
2024/01/23 11:36:12;;;;;;;;;;;;;;;16.17;39.32;101741.41;5058383;28;908;-58
2024/01/23 11:38:42;;;;;;;;;;;;;;;16.71;38.72;101739.03;5058698;28;1060;-61
2024/01/23 11:41:28;;;;;;;;;;;;;;;18.07;35.84;101741.34;5058132;28;1191;-59
2024/01/23 11:43:54;;;;;;;;;;;;;;;16.55;38.68;101737.09;5057656;28;1314;-60
2024/01/23 11:46:20;;;;;;;;;;;;;;;16.09;39.54;101731.69;5058420;28;1019;-57
2024/01/23 11:48:47;;;;;;;;;;;;;;;17.43;37.09;101729.06;5058571;28;1905;-60
2024/01/23 11:51:13;;;;;;;;;;;;;;;16.44;38.85;101719.66;5040071;28;1080;-58
2024/01/23 11:53:42;;;;;;;;;;;;;;;15.91;40.20;101724.50;5057814;28;1012;-58
2024/01/23 11:56:08;;;;;;;;;;;;;;;15.91;40.30;101730.00;5057465;28;1103;-58
2024/01/23 11:58:33;;;;;;;;;;;;;;;17.33;37.16;101728.09;5058077;28;1055;-58
2024/01/23 12:00:59;;;;;;;;;;;;;;;16.26;39.20;101726.22;5040217;28;1039;-58
2024/01/23 12:03:24;;;;;;;;;;;;;;;16.11;39.77;101720.47;5057976;28;1015;-59
2024/01/23 12:05:50;;;;;;;;;;;;;;;17.84;36.29;101725.09;5057582;28;1079;-60
2024/01/23 12:08:16;;;;;;;;;;;;;;;16.47;38.76;101721.06;5057705;28;1902;-59
2024/01/23 12:10:42;;;;;;;;;;;;;;;16.07;39.83;101723.72;5057775;28;1174;-59
2024/01/23 12:13:07;;;;;;;;;;;;;;;17.56;36.82;101716.84;5057827;28;1052;-58
2024/01/23 12:15:33;;;;;;;;;;;;;;;17.08;37.52;101716.53;5058016;28;1056;-58
2024/01/23 12:17:58;;;;;;;;;;;;;;;16.30;39.57;101721.91;5057302;28;1151;-60
2024/01/23 12:20:24;;;;;;;;;;;;;;;15.98;39.83;101713.38;5057687;28;1048;-60
2024/01/23 12:22:51;;;;;;;;;;;;;;;17.05;37.91;101727.19;5056932;28;1028;-58
2024/01/23 12:25:17;;;;;;;;;;;;;;;16.13;39.46;101718.28;5057282;28;1147;-61
2024/01/23 12:27:47;;;;;;;;;;;;;;;15.76;40.52;101719.53;5039816;28;1980;-63
2024/01/23 12:30:15;;;;;;;;;;;;;;;17.33;37.60;101717.91;5057294;28;1079;-62
2024/01/23 12:32:50;;;;;;;;;;;;;;;16.48;38.79;101715.34;5054955;28;1079;-61
2024/01/23 12:35:15;;;;;;;;;;;;;;;15.95;40.02;101714.69;5056530;28;1017;-62
2024/01/23 12:37:41;;;;;;;;;;;;;;;16.68;38.84;101720.31;5057494;28;1066;-60
2024/01/23 12:40:13;;;;;;;;;;;;;;;16.56;38.50;101719.56;5039589;28;1005;-60